Time;durP1;ratioP1;P1;durP2;ratioP2;P2;SDS_P1;SDS_P2;PMS_P1;PMS_P2;Temp;Humidity;BMP_temperature;BMP_pressure;BME280_temperature;BME280_humidity;BME280_pressure;Samples;Min_cycle;Max_cycle;Signal;HPM_P1;HPM_P2
2024/04/10 00:01:00;;;;;;;;;;;;;;;9.39;76.89;101922.12;106854;1264;24289;-48
2024/04/10 00:03:28;;;;;;;;;;;;;;;9.39;76.88;101930.05;107089;1274;22702;-51
2024/04/10 00:05:59;;;;;;;;;;;;;;;9.40;77.00;101931.61;107126;1274;22425;-44
2024/04/10 00:08:26;;;;;;;;;;;;;;;9.41;76.88;101936.69;106973;1274;22607;-46
2024/04/10 00:10:53;;;;;;;;;;;;;;;9.42;77.04;101938.05;106941;1273;22509;-45
2024/04/10 00:13:21;;;;;;;;;;;;;;;9.44;77.00;101940.10;107023;1273;25213;-44
2024/04/10 00:15:57;;;;;;;;;;;;;;;9.44;76.93;101943.29;106980;1275;22586;-45
2024/04/10 00:18:24;;;;;;;;;;;;;;;9.43;77.04;101944.20;106925;1275;25989;-45
2024/04/10 00:20:51;;;;;;;;;;;;;;;9.42;76.99;101947.77;106906;1274;22495;-45
2024/04/10 00:23:18;;;;;;;;;;;;;;;9.40;76.99;101952.77;106887;1274;25218;-45
2024/04/10 00:25:52;;;;;;;;;;;;;;;9.37;77.04;101955.71;106963;1274;22632;-44
2024/04/10 00:28:19;;;;;;;;;;;;;;;9.32;77.31;101956.73;107002;1274;22598;-44
2024/04/10 00:30:46;;;;;;;;;;;;;;;9.28;77.30;101960.21;106911;1274;22793;-44
2024/04/10 00:33:13;;;;;;;;;;;;;;;9.23;77.11;101964.97;107136;1275;22620;-46
2024/04/10 00:35:40;;;;;;;;;;;;;;;9.20;77.16;101971.95;107161;1273;22457;-45
2024/04/10 00:38:07;;;;;;;;;;;;;;;9.16;77.27;101977.55;106874;1275;23752;-46
2024/04/10 00:40:34;;;;;;;;;;;;;;;9.13;77.33;101982.07;106867;1274;25348;-44
2024/04/10 00:43:04;;;;;;;;;;;;;;;9.10;77.43;101988.52;106902;1274;25231;-45
2024/04/10 00:45:34;;;;;;;;;;;;;;;9.07;77.50;101994.77;107001;1275;24378;-45
2024/04/10 00:48:01;;;;;;;;;;;;;;;9.02;77.68;101994.91;107088;1274;22600;-45
2024/04/10 00:50:28;;;;;;;;;;;;;;;9.00;77.81;102000.27;107144;1272;24732;-46
2024/04/10 00:52:55;;;;;;;;;;;;;;;8.96;77.98;102006.93;106998;1274;22548;-44
2024/04/10 00:55:22;;;;;;;;;;;;;;;8.93;78.12;102012.11;107031;1274;22492;-45
2024/04/10 00:57:50;;;;;;;;;;;;;;;8.91;78.40;102013.44;106884;1271;22493;-45
2024/04/10 01:00:17;;;;;;;;;;;;;;;8.88;78.51;102012.64;106958;1274;22461;-44
2024/04/10 01:02:44;;;;;;;;;;;;;;;8.88;78.68;102019.01;106859;1274;25364;-44
2024/04/10 01:05:11;;;;;;;;;;;;;;;8.86;78.75;102020.63;106867;1274;22429;-44
2024/04/10 01:07:38;;;;;;;;;;;;;;;8.87;78.91;102025.02;106873;1273;22516;-47
2024/04/10 01:10:05;;;;;;;;;;;;;;;8.89;78.91;102031.49;106889;1272;24401;-46
2024/04/10 01:12:33;;;;;;;;;;;;;;;8.91;79.01;102032.48;107008;1274;23935;-45
2024/04/10 01:15:01;;;;;;;;;;;;;;;8.94;79.10;102040.66;106934;1274;24434;-46
2024/04/10 01:17:28;;;;;;;;;;;;;;;8.94;79.02;102041.88;107045;1274;24192;-48
2024/04/10 01:19:56;;;;;;;;;;;;;;;8.95;79.05;102045.73;107046;1268;22472;-45
2024/04/10 01:22:23;;;;;;;;;;;;;;;8.97;79.12;102055.02;106937;1273;24392;-45
2024/04/10 01:24:51;;;;;;;;;;;;;;;8.97;79.10;102056.95;106869;1275;22435;-48
2024/04/10 01:27:18;;;;;;;;;;;;;;;8.97;79.13;102059.79;107000;1274;22496;-46
2024/04/10 01:29:45;;;;;;;;;;;;;;;8.95;79.28;102065.64;107082;1275;22504;-46
2024/04/10 01:32:12;;;;;;;;;;;;;;;8.95;79.45;102068.83;106948;1274;22546;-44
2024/04/10 01:34:38;;;;;;;;;;;;;;;8.94;79.43;102073.45;107073;1266;22914;-45
2024/04/10 01:37:05;;;;;;;;;;;;;;;8.92;79.72;102081.45;107222;1275;24040;-44
2024/04/10 01:39:32;;;;;;;;;;;;;;;8.89;80.25;102088.77;107092;1267;22652;-45
2024/04/10 01:41:59;;;;;;;;;;;;;;;8.86;81.02;102098.01;106934;1274;24164;-46
2024/04/10 01:44:26;;;;;;;;;;;;;;;8.82;81.70;102100.08;106910;1270;22583;-44
2024/04/10 01:46:53;;;;;;;;;;;;;;;8.78;82.01;102108.81;106881;1275;22495;-46
2024/04/10 01:49:20;;;;;;;;;;;;;;;8.76;82.43;102103.59;107040;1274;24586;-46
2024/04/10 01:51:47;;;;;;;;;;;;;;;8.75;82.99;102102.38;107097;1273;22927;-51
2024/04/10 01:54:14;;;;;;;;;;;;;;;8.76;83.23;102107.48;107050;1275;22530;-50
2024/04/10 01:56:41;;;;;;;;;;;;;;;8.77;83.57;102109.90;106860;1274;24199;-48
2024/04/10 01:59:08;;;;;;;;;;;;;;;8.81;83.90;102112.44;106915;1275;25211;-47
2024/04/10 02:01:37;;;;;;;;;;;;;;;8.85;84.18;102118.67;106967;1274;22523;-48
2024/04/10 02:04:04;;;;;;;;;;;;;;;8.89;84.48;102126.13;106893;1274;348253;-49
2024/04/10 02:06:30;;;;;;;;;;;;;;;8.94;84.54;102129.52;107099;1274;22427;-52
2024/04/10 02:08:57;;;;;;;;;;;;;;;8.98;84.72;102132.57;106924;1273;24155;-52
2024/04/10 02:11:28;;;;;;;;;;;;;;;9.00;84.84;102132.16;106910;1274;22552;-49
2024/04/10 02:13:56;;;;;;;;;;;;;;;9.01;84.93;102133.71;107027;1275;22642;-50
2024/04/10 02:16:23;;;;;;;;;;;;;;;9.01;85.19;102136.34;106981;1275;22634;-46
2024/04/10 02:18:50;;;;;;;;;;;;;;;9.02;85.03;102136.50;107005;1274;22457;-49
2024/04/10 02:21:17;;;;;;;;;;;;;;;9.02;85.03;102134.76;106929;1275;22677;-47
2024/04/10 02:23:44;;;;;;;;;;;;;;;9.01;84.91;102141.65;107013;1274;24253;-48
2024/04/10 02:26:11;;;;;;;;;;;;;;;9.02;85.12;102149.55;107028;1275;24196;-48
2024/04/10 02:28:39;;;;;;;;;;;;;;;9.04;85.16;102156.02;106993;1274;25391;-47
2024/04/10 02:31:09;;;;;;;;;;;;;;;9.06;85.21;102163.73;107029;1274;22656;-47
2024/04/10 02:33:37;;;;;;;;;;;;;;;9.08;85.27;102165.80;106905;1272;22537;-46
2024/04/10 02:36:05;;;;;;;;;;;;;;;9.07;85.27;102168.27;106926;1273;22488;-50
2024/04/10 02:38:35;;;;;;;;;;;;;;;9.06;85.27;102168.30;106962;1275;22502;-47
2024/04/10 02:41:02;;;;;;;;;;;;;;;9.06;85.42;102175.19;106914;1274;25347;-47
2024/04/10 02:43:29;;;;;;;;;;;;;;;9.05;85.53;102179.27;106995;1273;22853;-47
2024/04/10 02:45:57;;;;;;;;;;;;;;;9.06;85.47;102186.13;106828;1274;24202;-47
2024/04/10 02:48:24;;;;;;;;;;;;;;;9.10;85.63;102186.90;107015;1275;22515;-49
2024/04/10 02:50:51;;;;;;;;;;;;;;;9.13;85.67;102190.15;107196;1273;23903;-49
2024/04/10 02:53:18;;;;;;;;;;;;;;;9.16;85.79;102195.88;106941;1274;23940;-47
2024/04/10 02:55:45;;;;;;;;;;;;;;;9.19;85.82;102198.10;107129;1275;22738;-50
2024/04/10 02:58:12;;;;;;;;;;;;;;;9.21;85.71;102201.02;106990;1275;22631;-51
2024/04/10 03:00:43;;;;;;;;;;;;;;;9.22;85.83;102208.24;107006;1274;23810;-49
2024/04/10 03:03:10;;;;;;;;;;;;;;;9.22;85.85;102211.95;107121;1274;22927;-51
2024/04/10 03:05:38;;;;;;;;;;;;;;;9.20;85.60;102211.11;107172;1275;22443;-47
2024/04/10 03:08:05;;;;;;;;;;;;;;;9.19;85.87;102220.30;107210;1274;22471;-48
2024/04/10 03:10:33;;;;;;;;;;;;;;;9.21;85.90;102226.07;107049;1275;24679;-48
2024/04/10 03:13:00;;;;;;;;;;;;;;;9.21;85.87;102228.17;106914;1274;24182;-51
2024/04/10 03:15:26;;;;;;;;;;;;;;;9.22;85.80;102230.27;106896;1275;22447;-48
2024/04/10 03:17:56;;;;;;;;;;;;;;;9.23;85.96;102235.90;106954;1274;22445;-50
2024/04/10 03:20:23;;;;;;;;;;;;;;;9.24;85.85;102239.55;106856;1274;22491;-52
2024/04/10 03:22:51;;;;;;;;;;;;;;;9.23;85.74;102241.52;107045;1267;25246;-51
2024/04/10 03:25:21;;;;;;;;;;;;;;;9.21;85.60;102249.36;106992;1274;22763;-49
2024/04/10 03:27:48;;;;;;;;;;;;;;;9.18;85.54;102252.25;107009;1274;22600;-48
2024/04/10 03:30:15;;;;;;;;;;;;;;;9.16;85.65;102256.20;107162;1275;22671;-47
2024/04/10 03:32:42;;;;;;;;;;;;;;;9.16;85.68;102257.45;106902;1274;22434;-49
2024/04/10 03:35:10;;;;;;;;;;;;;;;9.16;85.68;102263.08;106873;1275;22436;-47
2024/04/10 03:37:36;;;;;;;;;;;;;;;9.17;85.74;102263.41;106986;1274;22433;-46
2024/04/10 03:40:04;;;;;;;;;;;;;;;9.17;85.74;102268.34;106879;1274;24202;-46
2024/04/10 03:42:32;;;;;;;;;;;;;;;9.18;85.95;102271.31;107037;1274;22500;-48
2024/04/10 03:44:59;;;;;;;;;;;;;;;9.19;85.70;102275.33;106897;1274;25257;-47
2024/04/10 03:47:26;;;;;;;;;;;;;;;9.20;85.86;102277.95;106880;1274;22503;-47
2024/04/10 03:49:53;;;;;;;;;;;;;;;9.22;85.87;102282.12;106913;1275;22522;-48
2024/04/10 03:52:20;;;;;;;;;;;;;;;9.24;85.85;102288.23;106903;1275;22484;-47
2024/04/10 03:54:47;;;;;;;;;;;;;;;9.24;85.83;102293.90;106885;1274;24155;-48
2024/04/10 03:57:14;;;;;;;;;;;;;;;9.24;85.76;102299.38;106951;1272;24273;-48
2024/04/10 03:59:41;;;;;;;;;;;;;;;9.23;85.76;102302.91;106952;1274;25396;-48
2024/04/10 04:02:08;;;;;;;;;;;;;;;9.23;85.84;102306.97;106991;1273;22450;-49
2024/04/10 04:04:35;;;;;;;;;;;;;;;9.23;85.66;102308.55;107077;1274;22912;-48
2024/04/10 04:07:01;;;;;;;;;;;;;;;9.24;85.64;102313.83;107060;1274;25165;-46
2024/04/10 04:09:28;;;;;;;;;;;;;;;9.27;85.73;102319.75;107017;1274;22534;-48
2024/04/10 04:11:55;;;;;;;;;;;;;;;9.27;85.69;102318.68;106941;1256;25217;-47
2024/04/10 04:14:22;;;;;;;;;;;;;;;9.28;85.84;102323.63;106940;1274;24169;-46
2024/04/10 04:16:49;;;;;;;;;;;;;;;9.27;85.87;102333.16;106906;1275;25251;-47
2024/04/10 04:19:17;;;;;;;;;;;;;;;9.27;85.92;102336.15;107053;1274;24254;-51
2024/04/10 04:21:43;;;;;;;;;;;;;;;9.27;85.93;102342.17;107077;1273;22443;-48
2024/04/10 04:24:10;;;;;;;;;;;;;;;9.26;85.90;102346.05;106942;1274;24122;-51
2024/04/10 04:26:37;;;;;;;;;;;;;;;9.25;85.89;102352.08;106864;1274;24327;-48
2024/04/10 04:29:04;;;;;;;;;;;;;;;9.25;85.79;102357.20;106970;1274;22605;-45
2024/04/10 04:31:31;;;;;;;;;;;;;;;9.27;85.77;102364.39;106974;1274;22639;-44
2024/04/10 04:33:59;;;;;;;;;;;;;;;9.28;85.70;102365.77;106966;1275;22590;-45
2024/04/10 04:36:26;;;;;;;;;;;;;;;9.29;85.66;102367.85;107053;1275;22488;-49
2024/04/10 04:38:53;;;;;;;;;;;;;;;9.30;85.46;102374.01;106965;1274;22452;-44
2024/04/10 04:41:20;;;;;;;;;;;;;;;9.30;85.59;102377.87;107154;1274;24189;-48
2024/04/10 04:43:47;;;;;;;;;;;;;;;9.29;85.62;102386.17;107014;1274;22469;-43
2024/04/10 04:46:16;;;;;;;;;;;;;;;9.28;85.63;102392.39;107147;1274;22500;-45
2024/04/10 04:48:43;;;;;;;;;;;;;;;9.26;85.57;102400.56;107095;1274;22515;-43
2024/04/10 04:51:11;;;;;;;;;;;;;;;9.25;85.45;102402.89;107123;1267;23195;-43
2024/04/10 04:53:38;;;;;;;;;;;;;;;9.23;85.13;102407.16;107104;1274;22501;-44
2024/04/10 04:56:05;;;;;;;;;;;;;;;9.23;85.09;102409.80;106962;1274;23254;-44
2024/04/10 04:58:33;;;;;;;;;;;;;;;9.23;85.19;102416.87;107126;1263;22503;-45
2024/04/10 05:01:00;;;;;;;;;;;;;;;9.23;85.30;102421.80;106974;1275;24167;-46
2024/04/10 05:06:13;;;;;;;;;;;;;;;9.23;85.03;102427.29;106960;1275;22540;-44
2024/04/10 05:08:40;;;;;;;;;;;;;;;9.22;84.76;102427.48;107098;1275;22445;-44
2024/04/10 05:11:08;;;;;;;;;;;;;;;9.19;84.69;102434.09;107027;1271;24211;-43
2024/04/10 05:13:36;;;;;;;;;;;;;;;9.16;84.61;102438.91;106936;1274;22507;-43
2024/04/10 05:16:03;;;;;;;;;;;;;;;9.14;84.48;102447.61;106932;1274;25347;-45
2024/04/10 05:18:30;;;;;;;;;;;;;;;9.12;84.36;102452.60;107009;1275;22506;-44
2024/04/10 05:20:57;;;;;;;;;;;;;;;9.11;84.59;102453.14;107172;1272;22490;-43
2024/04/10 05:23:24;;;;;;;;;;;;;;;9.12;84.70;102459.80;106998;1275;22496;-43
2024/04/10 05:25:53;;;;;;;;;;;;;;;9.13;84.59;102462.80;106865;1275;22521;-44
2024/04/10 05:28:24;;;;;;;;;;;;;;;9.14;84.47;102466.47;106982;1272;25812;-43
2024/04/10 05:30:51;;;;;;;;;;;;;;;9.16;84.45;102472.96;106866;1274;25208;-43
2024/04/10 05:33:18;;;;;;;;;;;;;;;9.17;84.46;102476.45;106926;1274;25952;-45
2024/04/10 05:35:45;;;;;;;;;;;;;;;9.18;84.49;102479.77;107006;1274;22634;-45
2024/04/10 05:38:12;;;;;;;;;;;;;;;9.19;84.52;102485.23;106974;1274;22432;-44
2024/04/10 05:40:38;;;;;;;;;;;;;;;9.19;84.63;102490.33;106993;1275;22493;-45
2024/04/10 05:43:05;;;;;;;;;;;;;;;9.20;84.67;102492.79;107030;1274;24133;-46
2024/04/10 05:45:32;;;;;;;;;;;;;;;9.20;84.92;102496.48;107066;1274;24325;-45
2024/04/10 05:47:59;;;;;;;;;;;;;;;9.22;85.29;102505.98;107089;1274;22655;-45
2024/04/10 05:50:26;;;;;;;;;;;;;;;9.23;85.47;102511.23;106886;1275;22618;-44
2024/04/10 05:52:53;;;;;;;;;;;;;;;9.27;85.39;102518.55;106904;1274;22801;-50
2024/04/10 05:55:20;;;;;;;;;;;;;;;9.30;85.23;102520.26;106922;1274;23021;-44
2024/04/10 05:57:47;;;;;;;;;;;;;;;9.32;85.35;102525.13;106974;1273;22428;-46
2024/04/10 06:00:14;;;;;;;;;;;;;;;9.35;85.50;102530.36;107041;1275;22447;-45
2024/04/10 06:02:44;;;;;;;;;;;;;;;9.36;85.51;102536.67;107008;1274;24222;-44
2024/04/10 06:05:11;;;;;;;;;;;;;;;9.37;85.58;102537.55;107292;1273;22455;-44
2024/04/10 06:07:42;;;;;;;;;;;;;;;9.37;85.24;102544.08;106985;1275;22591;-44
2024/04/10 06:10:10;;;;;;;;;;;;;;;9.35;85.21;102547.29;107087;1275;23937;-52
2024/04/10 06:12:37;;;;;;;;;;;;;;;9.36;85.26;102555.55;107157;1274;22509;-48
2024/04/10 06:15:04;;;;;;;;;;;;;;;9.37;85.15;102560.48;106850;1275;25392;-48
2024/04/10 06:17:31;;;;;;;;;;;;;;;9.36;85.05;102562.60;107144;1275;22650;-47
2024/04/10 06:19:58;;;;;;;;;;;;;;;9.39;84.90;102562.73;107047;1274;22512;-48
2024/04/10 06:22:25;;;;;;;;;;;;;;;9.42;84.99;102566.70;106907;1274;22471;-46
2024/04/10 06:24:52;;;;;;;;;;;;;;;9.46;85.08;102571.55;106955;1271;24176;-47
2024/04/10 06:27:19;;;;;;;;;;;;;;;9.50;85.22;102580.28;106933;1274;22445;-47
2024/04/10 06:29:46;;;;;;;;;;;;;;;9.54;84.93;102584.41;107093;1275;22913;-50
2024/04/10 06:32:13;;;;;;;;;;;;;;;9.56;84.77;102588.41;106973;1275;22532;-47
2024/04/10 06:34:41;;;;;;;;;;;;;;;9.58;84.52;102591.55;107204;1272;22521;-49
2024/04/10 06:37:08;;;;;;;;;;;;;;;9.60;84.58;102595.02;107004;1272;25320;-50
2024/04/10 06:39:35;;;;;;;;;;;;;;;9.61;84.77;102596.95;106920;1274;22805;-47
2024/04/10 06:42:02;;;;;;;;;;;;;;;9.64;84.79;102602.19;107026;1275;22547;-48
2024/04/10 06:44:29;;;;;;;;;;;;;;;9.66;84.89;102606.36;107164;1275;22510;-52
2024/04/10 06:46:56;;;;;;;;;;;;;;;9.72;84.77;102614.36;106883;1275;25279;-50
2024/04/10 06:49:23;;;;;;;;;;;;;;;9.75;84.25;102622.02;106924;1274;25376;-49
2024/04/10 06:51:50;;;;;;;;;;;;;;;9.78;83.77;102623.54;106891;1272;24170;-49
2024/04/10 06:54:20;;;;;;;;;;;;;;;9.83;83.79;102630.84;106996;1274;22448;-52
2024/04/10 06:56:48;;;;;;;;;;;;;;;9.87;83.60;102632.48;107212;1275;24325;-52
2024/04/10 06:59:15;;;;;;;;;;;;;;;9.90;83.61;102638.59;107095;1274;24610;-48
2024/04/10 07:01:42;;;;;;;;;;;;;;;9.93;83.47;102639.77;107129;1267;25246;-48
2024/04/10 07:04:09;;;;;;;;;;;;;;;9.95;83.29;102634.42;106888;1275;24341;-47
2024/04/10 07:06:36;;;;;;;;;;;;;;;9.96;83.32;102640.93;106891;1273;22651;-47
2024/04/10 07:09:03;;;;;;;;;;;;;;;9.97;83.18;102639.14;106871;1273;24306;-47
2024/04/10 07:11:31;;;;;;;;;;;;;;;9.99;83.40;102643.51;106900;1274;22456;-48
2024/04/10 07:14:01;;;;;;;;;;;;;;;10.02;83.29;102648.90;106931;1275;24205;-51
2024/04/10 07:16:30;;;;;;;;;;;;;;;10.06;83.44;102656.75;106934;1275;25396;-49
2024/04/10 07:18:58;;;;;;;;;;;;;;;10.09;83.43;102655.79;106980;1275;23891;-49
2024/04/10 07:21:25;;;;;;;;;;;;;;;10.11;82.51;102653.09;106918;1274;25927;-50
2024/04/10 07:23:51;;;;;;;;;;;;;;;10.14;82.57;102657.25;107008;1275;23909;-48
2024/04/10 07:26:23;;;;;;;;;;;;;;;10.17;82.47;102663.91;107093;1275;22442;-48
2024/04/10 07:28:52;;;;;;;;;;;;;;;10.19;82.00;102668.79;106908;1275;22600;-48
2024/04/10 07:31:20;;;;;;;;;;;;;;;10.22;81.85;102667.82;107026;1275;22455;-48
2024/04/10 07:33:51;;;;;;;;;;;;;;;10.28;82.22;102678.27;107027;1273;22573;-49
2024/04/10 07:36:18;;;;;;;;;;;;;;;10.35;82.09;102676.36;107094;1275;23044;-49
2024/04/10 07:38:45;;;;;;;;;;;;;;;10.42;81.48;102677.60;106995;1273;24154;-52
2024/04/10 07:41:13;;;;;;;;;;;;;;;10.49;81.41;102676.16;106945;1274;25392;-49
2024/04/10 07:43:40;;;;;;;;;;;;;;;10.57;81.33;102670.11;106977;1274;24190;-51
2024/04/10 07:46:09;;;;;;;;;;;;;;;10.66;81.42;102671.27;106930;1274;22541;-48
2024/04/10 07:48:36;;;;;;;;;;;;;;;10.78;81.19;102677.50;106907;1275;24242;-49
2024/04/10 07:51:04;;;;;;;;;;;;;;;10.89;80.79;102677.00;106865;1275;25205;-50
2024/04/10 07:53:31;;;;;;;;;;;;;;;11.00;80.44;102679.34;107018;1273;25396;-49
2024/04/10 07:55:58;;;;;;;;;;;;;;;11.13;80.65;102682.71;106993;1274;24208;-51
2024/04/10 07:58:25;;;;;;;;;;;;;;;11.25;80.16;102690.11;106894;1274;22502;-50
2024/04/10 08:00:56;;;;;;;;;;;;;;;11.37;79.97;102698.61;106981;1275;24155;-50
2024/04/10 08:03:23;;;;;;;;;;;;;;;11.50;79.75;102698.22;106992;1275;22482;-48
2024/04/10 08:05:51;;;;;;;;;;;;;;;11.62;79.38;102696.23;107193;1274;22444;-48
2024/04/10 08:08:18;;;;;;;;;;;;;;;11.74;78.52;102695.00;107027;1275;22509;-51
2024/04/10 08:10:46;;;;;;;;;;;;;;;11.85;78.16;102699.42;107053;1275;22439;-51
2024/04/10 08:13:14;;;;;;;;;;;;;;;11.97;78.10;102693.56;106973;1275;24133;-50
2024/04/10 08:15:44;;;;;;;;;;;;;;;12.09;77.00;102691.04;106942;1274;22573;-48
2024/04/10 08:18:12;;;;;;;;;;;;;;;12.21;76.86;102695.79;106915;1273;22516;-48
2024/04/10 08:20:39;;;;;;;;;;;;;;;12.35;76.14;102699.38;106901;1274;22444;-48
2024/04/10 08:23:06;;;;;;;;;;;;;;;12.48;75.60;102697.88;106906;1274;22450;-51
2024/04/10 08:25:33;;;;;;;;;;;;;;;12.58;73.86;102705.17;106884;1275;24286;-52
2024/04/10 08:28:00;;;;;;;;;;;;;;;12.66;73.16;102708.77;106897;1275;22516;-49
2024/04/10 08:30:27;;;;;;;;;;;;;;;12.79;73.10;102709.89;106923;1275;22443;-49
2024/04/10 08:32:53;;;;;;;;;;;;;;;12.96;73.08;102709.30;106868;1273;24217;-51
2024/04/10 08:35:22;;;;;;;;;;;;;;;13.10;71.88;102717.11;106914;1274;22546;-48
2024/04/10 08:37:50;;;;;;;;;;;;;;;13.21;71.03;102722.38;106944;1273;24180;-48
2024/04/10 08:40:17;;;;;;;;;;;;;;;13.34;70.71;102720.31;107191;1275;24172;-52
2024/04/10 08:42:44;;;;;;;;;;;;;;;13.48;69.55;102726.00;106942;1275;25212;-52
2024/04/10 08:45:11;;;;;;;;;;;;;;;13.58;68.98;102730.79;106896;1275;23450;-51
2024/04/10 08:47:41;;;;;;;;;;;;;;;13.71;69.32;102729.54;107016;1274;25259;-51
2024/04/10 08:50:08;;;;;;;;;;;;;;;13.86;68.77;102729.49;107172;1275;22519;-51
2024/04/10 08:52:36;;;;;;;;;;;;;;;13.97;68.38;102736.86;106902;1274;25407;-49
2024/04/10 08:55:05;;;;;;;;;;;;;;;14.07;68.18;102745.35;106930;1273;24187;-50
2024/04/10 08:57:32;;;;;;;;;;;;;;;14.17;67.36;102749.52;106914;1275;23925;-53
2024/04/10 08:59:59;;;;;;;;;;;;;;;14.29;66.78;102751.37;106903;1275;22428;-50
2024/04/10 09:02:26;;;;;;;;;;;;;;;14.34;65.50;102756.83;106877;1273;22744;-50
2024/04/10 09:04:53;;;;;;;;;;;;;;;14.35;65.01;102757.67;106866;1273;24136;-51
2024/04/10 09:07:20;;;;;;;;;;;;;;;14.37;64.67;102760.27;106934;1274;22708;-52
2024/04/10 09:09:50;;;;;;;;;;;;;;;14.43;64.85;102765.02;106919;1273;24225;-49
2024/04/10 09:12:23;;;;;;;;;;;;;;;14.45;63.82;102765.45;106937;1275;22495;-52
2024/04/10 09:14:50;;;;;;;;;;;;;;;14.48;63.66;102766.75;106911;1274;22507;-48
2024/04/10 09:17:18;;;;;;;;;;;;;;;14.50;63.46;102769.70;106872;1275;25374;-53
2024/04/10 09:19:45;;;;;;;;;;;;;;;14.54;63.55;102768.30;106975;1274;25213;-52
2024/04/10 09:22:14;;;;;;;;;;;;;;;14.61;63.03;102771.21;106940;1274;25211;-50
2024/04/10 09:24:40;;;;;;;;;;;;;;;14.64;61.48;102774.66;106994;1275;22436;-49
2024/04/10 09:27:10;;;;;;;;;;;;;;;14.67;60.89;102776.66;106886;1273;24122;-52
2024/04/10 09:29:38;;;;;;;;;;;;;;;14.71;60.82;102776.33;106979;1275;22818;-51
2024/04/10 09:32:05;;;;;;;;;;;;;;;14.80;60.81;102784.45;106925;1275;23251;-52
2024/04/10 09:34:33;;;;;;;;;;;;;;;14.91;61.02;102783.44;107087;1275;24172;-53
2024/04/10 09:37:06;;;;;;;;;;;;;;;15.08;61.17;102783.59;107003;1274;22608;-52
2024/04/10 09:39:34;;;;;;;;;;;;;;;15.26;60.48;102783.84;107062;1275;22556;-49
2024/04/10 09:42:01;;;;;;;;;;;;;;;15.42;59.62;102792.20;107035;1273;22537;-49
2024/04/10 09:44:31;;;;;;;;;;;;;;;15.56;59.26;102788.18;106912;1274;22500;-51
2024/04/10 09:46:59;;;;;;;;;;;;;;;15.74;58.79;102790.20;106934;1275;22505;-50
2024/04/10 09:49:27;;;;;;;;;;;;;;;15.93;58.36;102795.05;106921;1273;22509;-50
2024/04/10 09:52:00;;;;;;;;;;;;;;;16.08;57.71;102798.20;106873;1275;25284;-51
2024/04/10 09:54:28;;;;;;;;;;;;;;;16.25;56.83;102786.69;106999;1275;24167;-49
2024/04/10 09:56:55;;;;;;;;;;;;;;;16.36;54.99;102782.41;106946;1275;24048;-52
2024/04/10 09:59:22;;;;;;;;;;;;;;;16.42;54.77;102783.13;106930;1275;23925;-49
2024/04/10 10:01:54;;;;;;;;;;;;;;;16.57;55.07;102787.60;106856;1275;25211;-53
2024/04/10 10:04:21;;;;;;;;;;;;;;;16.72;55.55;102783.20;106917;1275;22545;-53
2024/04/10 10:06:48;;;;;;;;;;;;;;;16.93;55.73;102785.20;106870;1275;22493;-51
2024/04/10 10:09:25;;;;;;;;;;;;;;;17.10;53.93;102794.34;106855;1275;22538;-53
2024/04/10 10:11:58;;;;;;;;;;;;;;;17.25;54.36;102792.27;106820;1275;22446;-49
2024/04/10 10:14:25;;;;;;;;;;;;;;;17.38;52.44;102789.40;106987;1275;25396;-53
2024/04/10 10:16:54;;;;;;;;;;;;;;;17.43;51.17;102793.98;107164;1275;24144;-54
2024/04/10 10:19:21;;;;;;;;;;;;;;;17.48;49.56;102795.36;106882;1275;22689;-52
2024/04/10 10:21:48;;;;;;;;;;;;;;;17.51;48.46;102793.38;106882;1275;22502;-53
2024/04/10 10:24:15;;;;;;;;;;;;;;;17.58;49.03;102797.63;106802;1275;22530;-53
2024/04/10 10:26:42;;;;;;;;;;;;;;;17.65;47.78;102798.33;106845;1275;23230;-53
2024/04/10 10:29:09;;;;;;;;;;;;;;;17.68;48.30;102806.73;106837;1275;22505;-54
2024/04/10 10:31:39;;;;;;;;;;;;;;;17.81;48.54;102807.48;106906;1275;25471;-53
2024/04/10 10:34:14;;;;;;;;;;;;;;;17.93;48.58;102812.38;106879;1275;22427;-53
2024/04/10 10:36:41;;;;;;;;;;;;;;;18.06;48.27;102811.81;106992;1275;22525;-53
2024/04/10 10:39:14;;;;;;;;;;;;;;;18.17;47.50;102811.88;106912;1275;22461;-53
2024/04/10 10:41:41;;;;;;;;;;;;;;;18.31;47.22;102807.87;107022;1275;22431;-52
2024/04/10 10:44:09;;;;;;;;;;;;;;;18.45;47.67;102800.61;106931;1275;22690;-52
2024/04/10 10:46:36;;;;;;;;;;;;;;;18.61;47.69;102807.17;106896;1275;23632;-53
2024/04/10 10:49:03;;;;;;;;;;;;;;;18.77;46.63;102813.23;106837;1270;25314;-53
2024/04/10 10:51:31;;;;;;;;;;;;;;;18.87;45.38;102811.03;106873;1275;22483;-54
2024/04/10 10:53:58;;;;;;;;;;;;;;;19.00;44.92;102814.01;106827;1275;25414;-54
2024/04/10 10:56:30;;;;;;;;;;;;;;;19.14;44.76;102820.48;106827;1275;24204;-52
2024/04/10 10:59:09;;;;;;;;;;;;;;;19.31;44.74;102821.61;106896;1275;25283;-54
2024/04/10 11:01:39;;;;;;;;;;;;;;;19.49;44.24;102818.83;106817;1275;25188;-52
2024/04/10 11:04:07;;;;;;;;;;;;;;;19.61;43.03;102820.21;106864;1275;25340;-53
2024/04/10 11:06:34;;;;;;;;;;;;;;;19.63;42.93;102822.08;107016;1275;22492;-55
2024/04/10 11:09:05;;;;;;;;;;;;;;;19.64;42.58;102823.30;106869;1275;25232;-55
2024/04/10 11:11:32;;;;;;;;;;;;;;;19.70;42.68;102825.08;107031;1275;22788;-55
2024/04/10 11:13:59;;;;;;;;;;;;;;;19.73;42.13;102825.06;107018;1275;24165;-53
2024/04/10 11:16:26;;;;;;;;;;;;;;;19.80;42.08;102821.95;107000;1275;24245;-55
2024/04/10 11:18:54;;;;;;;;;;;;;;;19.88;41.37;102817.30;106900;1275;24170;-55
2024/04/10 11:21:21;;;;;;;;;;;;;;;19.90;41.13;102815.53;106916;1275;22747;-55
2024/04/10 11:23:48;;;;;;;;;;;;;;;19.97;41.26;102822.99;106947;1275;24180;-55
2024/04/10 11:26:15;;;;;;;;;;;;;;;20.07;41.26;102822.52;106978;1275;24622;-55
2024/04/10 11:28:43;;;;;;;;;;;;;;;20.20;41.06;102821.83;106935;1275;25381;-55
2024/04/10 11:31:10;;;;;;;;;;;;;;;20.37;41.07;102817.88;106868;1275;22742;-55
2024/04/10 11:33:37;;;;;;;;;;;;;;;20.53;40.61;102819.64;106923;1275;22629;-56
2024/04/10 11:36:05;;;;;;;;;;;;;;;20.70;40.29;102820.35;106885;1272;22519;-55
2024/04/10 11:38:32;;;;;;;;;;;;;;;20.82;39.20;102820.58;106869;1275;22521;-55
2024/04/10 11:40:59;;;;;;;;;;;;;;;20.81;37.70;102820.64;106840;1275;22456;-55
2024/04/10 11:43:28;;;;;;;;;;;;;;;20.79;38.49;102823.49;106839;1275;22675;-55
2024/04/10 11:45:55;;;;;;;;;;;;;;;20.79;38.38;102838.20;106861;1275;24651;-55
2024/04/10 11:48:22;;;;;;;;;;;;;;;20.76;37.80;102839.71;106828;1275;22507;-55
2024/04/10 11:50:49;;;;;;;;;;;;;;;20.70;37.42;102842.94;106863;1275;25278;-55
2024/04/10 11:53:16;;;;;;;;;;;;;;;20.76;37.59;102848.52;107105;1275;22492;-55
2024/04/10 11:55:43;;;;;;;;;;;;;;;20.88;37.47;102848.16;106989;1275;22506;-55
2024/04/10 11:58:10;;;;;;;;;;;;;;;21.03;37.59;102850.39;106812;1275;24243;-55
2024/04/10 12:00:37;;;;;;;;;;;;;;;21.16;36.91;102845.02;106844;1273;22781;-55
2024/04/10 12:03:04;;;;;;;;;;;;;;;21.26;37.21;102840.90;106921;1275;22873;-55
2024/04/10 12:05:31;;;;;;;;;;;;;;;21.41;37.26;102840.77;107027;1265;25288;-55
2024/04/10 12:07:58;;;;;;;;;;;;;;;21.59;36.46;102842.38;106974;1275;22928;-56
2024/04/10 12:10:25;;;;;;;;;;;;;;;21.72;36.20;102840.55;107008;1274;22447;-52
2024/04/10 12:12:53;;;;;;;;;;;;;;;21.80;35.56;102840.85;107072;1275;22532;-51
2024/04/10 12:15:20;;;;;;;;;;;;;;;21.88;35.49;102838.80;107127;1275;22888;-48
2024/04/10 12:17:47;;;;;;;;;;;;;;;21.94;35.44;102840.55;107035;1275;22518;-49
2024/04/10 12:20:15;;;;;;;;;;;;;;;22.00;35.20;102842.66;107278;1275;22440;-50
2024/04/10 12:22:42;;;;;;;;;;;;;;;22.05;34.62;102839.96;107020;1275;24172;-50
2024/04/10 12:25:09;;;;;;;;;;;;;;;22.16;34.97;102840.53;106881;1275;25258;-50
2024/04/10 12:27:35;;;;;;;;;;;;;;;22.33;34.33;102840.25;106867;1275;22524;-51
2024/04/10 12:30:03;;;;;;;;;;;;;;;22.41;33.99;102838.34;106899;1274;22459;-50
2024/04/10 12:32:30;;;;;;;;;;;;;;;22.50;34.49;102840.55;107016;1275;22641;-49
2024/04/10 12:40:31;;;;;;;;;;;;;;;22.98;33.93;102851.29;106997;1275;25269;-51
2024/04/10 12:42:58;;;;;;;;;;;;;;;22.98;33.33;102850.42;106935;1275;22435;-50